sensor_id;sensor_type;location;lat;lon;timestamp;P1;durP1;ratioP1;P2;durP2;ratioP2
42176;SDS011;28126;51.060;19.460;2022-07-17T00:00:35;3.80;;;2.02;;
42176;SDS011;28126;51.060;19.460;2022-07-17T00:03:37;3.17;;;1.90;;
42176;SDS011;28126;51.060;19.460;2022-07-17T00:06:38;2.72;;;1.77;;
42176;SDS011;28126;51.060;19.460;2022-07-17T00:09:39;3.85;;;2.17;;
42176;SDS011;28126;51.060;19.460;2022-07-17T00:12:41;3.83;;;2.02;;
42176;SDS011;28126;51.060;19.460;2022-07-17T00:15:43;3.60;;;1.90;;
42176;SDS011;28126;51.060;19.460;2022-07-17T00:18:44;2.80;;;1.82;;
42176;SDS011;28126;51.060;19.460;2022-07-17T00:21:46;3.12;;;1.80;;
42176;SDS011;28126;51.060;19.460;2022-07-17T00:24:47;1.87;;;1.67;;
42176;SDS011;28126;51.060;19.460;2022-07-17T00:27:49;2.85;;;1.95;;
42176;SDS011;28126;51.060;19.460;2022-07-17T00:30:50;3.05;;;1.67;;
42176;SDS011;28126;51.060;19.460;2022-07-17T00:33:52;2.70;;;1.67;;
42176;SDS011;28126;51.060;19.460;2022-07-17T00:36:53;3.00;;;1.80;;
42176;SDS011;28126;51.060;19.460;2022-07-17T00:39:55;2.37;;;1.60;;
42176;SDS011;28126;51.060;19.460;2022-07-17T00:42:56;3.42;;;1.32;;
42176;SDS011;28126;51.060;19.460;2022-07-17T00:45:59;3.02;;;1.67;;
42176;SDS011;28126;51.060;19.460;2022-07-17T00:49:03;3.52;;;1.60;;
42176;SDS011;28126;51.060;19.460;2022-07-17T00:52:07;3.67;;;1.72;;
42176;SDS011;28126;51.060;19.460;2022-07-17T00:55:11;2.17;;;1.40;;
42176;SDS011;28126;51.060;19.460;2022-07-17T00:58:18;2.80;;;1.70;;
42176;SDS011;28126;51.060;19.460;2022-07-17T01:01:23;2.20;;;1.30;;
42176;SDS011;28126;51.060;19.460;2022-07-17T01:04:24;2.77;;;1.52;;
42176;SDS011;28126;51.060;19.460;2022-07-17T01:07:25;2.75;;;1.20;;
42176;SDS011;28126;51.060;19.460;2022-07-17T01:10:27;3.52;;;1.80;;
42176;SDS011;28126;51.060;19.460;2022-07-17T01:13:29;3.00;;;1.67;;
42176;SDS011;28126;51.060;19.460;2022-07-17T01:16:32;3.60;;;1.55;;
42176;SDS011;28126;51.060;19.460;2022-07-17T01:19:34;2.47;;;1.52;;
42176;SDS011;28126;51.060;19.460;2022-07-17T01:22:47;2.58;;;1.60;;
42176;SDS011;28126;51.060;19.460;2022-07-17T01:25:47;2.95;;;1.55;;
42176;SDS011;28126;51.060;19.460;2022-07-17T01:28:48;3.30;;;1.70;;
42176;SDS011;28126;51.060;19.460;2022-07-17T01:31:50;3.27;;;1.55;;
42176;SDS011;28126;51.060;19.460;2022-07-17T01:34:51;2.65;;;1.55;;
42176;SDS011;28126;51.060;19.460;2022-07-17T01:37:52;2.25;;;1.25;;
42176;SDS011;28126;51.060;19.460;2022-07-17T01:40:54;2.02;;;1.30;;
42176;SDS011;28126;51.060;19.460;2022-07-17T01:43:56;4.10;;;1.60;;
42176;SDS011;28126;51.060;19.460;2022-07-17T01:46:59;2.90;;;1.37;;
42176;SDS011;28126;51.060;19.460;2022-07-17T01:50:02;2.42;;;1.32;;
42176;SDS011;28126;51.060;19.460;2022-07-17T01:53:05;2.55;;;1.40;;
42176;SDS011;28126;51.060;19.460;2022-07-17T01:56:07;2.00;;;1.30;;
42176;SDS011;28126;51.060;19.460;2022-07-17T01:59:08;2.10;;;1.30;;
42176;SDS011;28126;51.060;19.460;2022-07-17T02:02:12;3.08;;;1.42;;
42176;SDS011;28126;51.060;19.460;2022-07-17T02:05:18;2.58;;;1.30;;
42176;SDS011;28126;51.060;19.460;2022-07-17T02:08:20;2.60;;;1.40;;
42176;SDS011;28126;51.060;19.460;2022-07-17T02:11:22;2.52;;;1.62;;
42176;SDS011;28126;51.060;19.460;2022-07-17T02:14:23;4.20;;;1.35;;
42176;SDS011;28126;51.060;19.460;2022-07-17T02:17:25;2.20;;;1.57;;
42176;SDS011;28126;51.060;19.460;2022-07-17T02:20:26;5.33;;;1.42;;
42176;SDS011;28126;51.060;19.460;2022-07-17T02:23:28;2.62;;;1.37;;
42176;SDS011;28126;51.060;19.460;2022-07-17T02:26:29;2.60;;;1.42;;
42176;SDS011;28126;51.060;19.460;2022-07-17T02:29:31;2.77;;;1.35;;
42176;SDS011;28126;51.060;19.460;2022-07-17T02:32:32;3.35;;;1.50;;
42176;SDS011;28126;51.060;19.460;2022-07-17T02:35:34;3.02;;;1.30;;
42176;SDS011;28126;51.060;19.460;2022-07-17T02:38:35;2.62;;;1.42;;
42176;SDS011;28126;51.060;19.460;2022-07-17T02:41:36;2.25;;;1.50;;
42176;SDS011;28126;51.060;19.460;2022-07-17T02:44:38;3.52;;;1.72;;
42176;SDS011;28126;51.060;19.460;2022-07-17T02:47:40;4.35;;;1.62;;
42176;SDS011;28126;51.060;19.460;2022-07-17T02:50:42;2.98;;;1.40;;
42176;SDS011;28126;51.060;19.460;2022-07-17T02:53:44;2.65;;;1.30;;
42176;SDS011;28126;51.060;19.460;2022-07-17T02:56:45;1.98;;;1.32;;
42176;SDS011;28126;51.060;19.460;2022-07-17T02:59:46;2.60;;;1.17;;
42176;SDS011;28126;51.060;19.460;2022-07-17T03:02:48;2.25;;;1.30;;
42176;SDS011;28126;51.060;19.460;2022-07-17T03:05:50;3.08;;;1.57;;
42176;SDS011;28126;51.060;19.460;2022-07-17T03:08:52;3.62;;;1.50;;
42176;SDS011;28126;51.060;19.460;2022-07-17T03:11:53;2.62;;;1.25;;
42176;SDS011;28126;51.060;19.460;2022-07-17T03:14:54;3.45;;;1.72;;
42176;SDS011;28126;51.060;19.460;2022-07-17T03:17:56;2.52;;;1.60;;
42176;SDS011;28126;51.060;19.460;2022-07-17T03:20:57;3.80;;;1.60;;
42176;SDS011;28126;51.060;19.460;2022-07-17T03:23:58;2.12;;;1.20;;
42176;SDS011;28126;51.060;19.460;2022-07-17T03:27:00;4.12;;;1.70;;
42176;SDS011;28126;51.060;19.460;2022-07-17T03:30:01;3.12;;;1.45;;
42176;SDS011;28126;51.060;19.460;2022-07-17T03:33:03;3.50;;;1.70;;
42176;SDS011;28126;51.060;19.460;2022-07-17T03:36:05;3.70;;;1.32;;
42176;SDS011;28126;51.060;19.460;2022-07-17T03:39:08;2.17;;;1.30;;
42176;SDS011;28126;51.060;19.460;2022-07-17T03:42:10;2.70;;;1.47;;
42176;SDS011;28126;51.060;19.460;2022-07-17T03:45:11;3.67;;;1.50;;
42176;SDS011;28126;51.060;19.460;2022-07-17T03:48:12;3.10;;;1.42;;
42176;SDS011;28126;51.060;19.460;2022-07-17T03:51:14;4.10;;;1.35;;
42176;SDS011;28126;51.060;19.460;2022-07-17T03:54:15;4.08;;;1.65;;
42176;SDS011;28126;51.060;19.460;2022-07-17T03:57:17;3.87;;;1.47;;
42176;SDS011;28126;51.060;19.460;2022-07-17T04:00:18;2.50;;;1.40;;
42176;SDS011;28126;51.060;19.460;2022-07-17T04:03:20;6.28;;;1.75;;
42176;SDS011;28126;51.060;19.460;2022-07-17T04:06:21;3.20;;;1.40;;
42176;SDS011;28126;51.060;19.460;2022-07-17T04:09:23;3.55;;;1.50;;
42176;SDS011;28126;51.060;19.460;2022-07-17T04:12:25;2.87;;;1.20;;
42176;SDS011;28126;51.060;19.460;2022-07-17T04:15:29;2.70;;;0.95;;
42176;SDS011;28126;51.060;19.460;2022-07-17T04:18:49;2.45;;;1.25;;
42176;SDS011;28126;51.060;19.460;2022-07-17T04:21:51;2.12;;;1.17;;
42176;SDS011;28126;51.060;19.460;2022-07-17T04:24:52;3.02;;;1.50;;
42176;SDS011;28126;51.060;19.460;2022-07-17T04:27:54;3.65;;;1.20;;
42176;SDS011;28126;51.060;19.460;2022-07-17T04:30:55;2.33;;;1.17;;
42176;SDS011;28126;51.060;19.460;2022-07-17T04:33:56;2.75;;;1.00;;
42176;SDS011;28126;51.060;19.460;2022-07-17T04:36:58;2.55;;;1.12;;
42176;SDS011;28126;51.060;19.460;2022-07-17T04:40:00;2.90;;;1.52;;
42176;SDS011;28126;51.060;19.460;2022-07-17T04:43:02;3.22;;;1.32;;
42176;SDS011;28126;51.060;19.460;2022-07-17T04:46:04;2.22;;;1.10;;
42176;SDS011;28126;51.060;19.460;2022-07-17T04:49:07;2.37;;;1.25;;
42176;SDS011;28126;51.060;19.460;2022-07-17T04:52:08;2.65;;;1.30;;
42176;SDS011;28126;51.060;19.460;2022-07-17T04:55:09;2.58;;;1.37;;
42176;SDS011;28126;51.060;19.460;2022-07-17T04:58:11;2.60;;;1.25;;
42176;SDS011;28126;51.060;19.460;2022-07-17T05:01:13;2.00;;;1.20;;
42176;SDS011;28126;51.060;19.460;2022-07-17T05:04:14;1.98;;;1.30;;
42176;SDS011;28126;51.060;19.460;2022-07-17T05:07:16;1.27;;;0.90;;
42176;SDS011;28126;51.060;19.460;2022-07-17T05:10:17;2.35;;;1.17;;
42176;SDS011;28126;51.060;19.460;2022-07-17T05:13:19;4.25;;;1.35;;
42176;SDS011;28126;51.060;19.460;2022-07-17T05:16:20;1.70;;;0.95;;
42176;SDS011;28126;51.060;19.460;2022-07-17T05:19:22;4.40;;;1.30;;
42176;SDS011;28126;51.060;19.460;2022-07-17T05:22:24;2.95;;;1.02;;
42176;SDS011;28126;51.060;19.460;2022-07-17T05:25:25;3.40;;;1.37;;
42176;SDS011;28126;51.060;19.460;2022-07-17T05:28:27;2.10;;;1.05;;
42176;SDS011;28126;51.060;19.460;2022-07-17T05:31:28;2.65;;;0.90;;
42176;SDS011;28126;51.060;19.460;2022-07-17T05:34:29;1.40;;;1.00;;
42176;SDS011;28126;51.060;19.460;2022-07-17T05:37:31;3.17;;;1.07;;
42176;SDS011;28126;51.060;19.460;2022-07-17T05:40:32;3.65;;;1.20;;
42176;SDS011;28126;51.060;19.460;2022-07-17T05:43:34;2.25;;;1.07;;
42176;SDS011;28126;51.060;19.460;2022-07-17T05:46:35;4.35;;;1.30;;
42176;SDS011;28126;51.060;19.460;2022-07-17T05:49:38;3.90;;;1.40;;
42176;SDS011;28126;51.060;19.460;2022-07-17T05:52:40;4.85;;;1.45;;
42176;SDS011;28126;51.060;19.460;2022-07-17T05:55:42;5.20;;;1.20;;
42176;SDS011;28126;51.060;19.460;2022-07-17T05:58:45;4.03;;;1.35;;
42176;SDS011;28126;51.060;19.460;2022-07-17T06:01:46;3.77;;;1.22;;
42176;SDS011;28126;51.060;19.460;2022-07-17T06:04:47;2.87;;;1.35;;
42176;SDS011;28126;51.060;19.460;2022-07-17T06:07:49;4.58;;;1.32;;
42176;SDS011;28126;51.060;19.460;2022-07-17T06:10:50;6.12;;;1.52;;
42176;SDS011;28126;51.060;19.460;2022-07-17T06:13:51;5.10;;;1.50;;
42176;SDS011;28126;51.060;19.460;2022-07-17T06:16:53;6.53;;;1.75;;
42176;SDS011;28126;51.060;19.460;2022-07-17T06:19:54;3.08;;;1.55;;
42176;SDS011;28126;51.060;19.460;2022-07-17T06:22:56;4.03;;;1.62;;
42176;SDS011;28126;51.060;19.460;2022-07-17T06:25:58;3.83;;;1.50;;
42176;SDS011;28126;51.060;19.460;2022-07-17T06:28:59;6.03;;;1.62;;
42176;SDS011;28126;51.060;19.460;2022-07-17T06:32:00;3.92;;;1.82;;
42176;SDS011;28126;51.060;19.460;2022-07-17T06:35:02;5.10;;;1.30;;
42176;SDS011;28126;51.060;19.460;2022-07-17T06:38:04;5.60;;;1.30;;
42176;SDS011;28126;51.060;19.460;2022-07-17T06:41:05;3.45;;;1.20;;
42176;SDS011;28126;51.060;19.460;2022-07-17T06:44:07;4.90;;;1.37;;
42176;SDS011;28126;51.060;19.460;2022-07-17T06:47:09;3.75;;;1.40;;
42176;SDS011;28126;51.060;19.460;2022-07-17T06:50:11;3.83;;;1.30;;
42176;SDS011;28126;51.060;19.460;2022-07-17T06:53:13;3.75;;;1.55;;
42176;SDS011;28126;51.060;19.460;2022-07-17T06:56:15;4.17;;;1.45;;
42176;SDS011;28126;51.060;19.460;2022-07-17T06:59:16;3.10;;;1.07;;
42176;SDS011;28126;51.060;19.460;2022-07-17T07:02:17;2.52;;;1.60;;
42176;SDS011;28126;51.060;19.460;2022-07-17T07:05:19;3.22;;;1.12;;
42176;SDS011;28126;51.060;19.460;2022-07-17T07:08:21;5.58;;;1.42;;
42176;SDS011;28126;51.060;19.460;2022-07-17T07:11:23;5.17;;;1.30;;
42176;SDS011;28126;51.060;19.460;2022-07-17T07:14:25;4.03;;;1.35;;
42176;SDS011;28126;51.060;19.460;2022-07-17T07:17:26;5.58;;;1.10;;
42176;SDS011;28126;51.060;19.460;2022-07-17T07:20:27;8.53;;;1.57;;
42176;SDS011;28126;51.060;19.460;2022-07-17T07:23:29;4.70;;;1.30;;
42176;SDS011;28126;51.060;19.460;2022-07-17T07:26:31;3.12;;;1.10;;
42176;SDS011;28126;51.060;19.460;2022-07-17T07:29:32;7.45;;;1.40;;
42176;SDS011;28126;51.060;19.460;2022-07-17T07:32:35;4.67;;;1.45;;
42176;SDS011;28126;51.060;19.460;2022-07-17T07:35:39;6.60;;;1.17;;
42176;SDS011;28126;51.060;19.460;2022-07-17T07:38:41;3.83;;;1.60;;
42176;SDS011;28126;51.060;19.460;2022-07-17T07:41:42;5.30;;;1.05;;
42176;SDS011;28126;51.060;19.460;2022-07-17T07:44:44;3.77;;;1.17;;
42176;SDS011;28126;51.060;19.460;2022-07-17T07:47:46;3.70;;;0.80;;
42176;SDS011;28126;51.060;19.460;2022-07-17T07:50:50;2.60;;;0.88;;
42176;SDS011;28126;51.060;19.460;2022-07-17T07:53:52;2.92;;;1.00;;
42176;SDS011;28126;51.060;19.460;2022-07-17T07:56:54;4.08;;;0.90;;
42176;SDS011;28126;51.060;19.460;2022-07-17T07:59:55;4.50;;;1.40;;
42176;SDS011;28126;51.060;19.460;2022-07-17T08:02:57;2.37;;;0.82;;
42176;SDS011;28126;51.060;19.460;2022-07-17T08:05:59;3.52;;;1.25;;
42176;SDS011;28126;51.060;19.460;2022-07-17T08:09:00;3.12;;;0.85;;
42176;SDS011;28126;51.060;19.460;2022-07-17T08:12:01;2.35;;;1.07;;
42176;SDS011;28126;51.060;19.460;2022-07-17T08:15:04;4.10;;;1.12;;
42176;SDS011;28126;51.060;19.460;2022-07-17T08:18:06;5.90;;;1.17;;
42176;SDS011;28126;51.060;19.460;2022-07-17T08:21:07;4.80;;;1.07;;
42176;SDS011;28126;51.060;19.460;2022-07-17T08:24:09;2.85;;;0.90;;
42176;SDS011;28126;51.060;19.460;2022-07-17T08:27:10;2.35;;;1.00;;
42176;SDS011;28126;51.060;19.460;2022-07-17T08:30:12;2.62;;;0.82;;
42176;SDS011;28126;51.060;19.460;2022-07-17T08:33:15;4.12;;;1.10;;
42176;SDS011;28126;51.060;19.460;2022-07-17T08:36:18;4.83;;;0.75;;
42176;SDS011;28126;51.060;19.460;2022-07-17T08:39:20;5.70;;;0.90;;
42176;SDS011;28126;51.060;19.460;2022-07-17T08:42:21;3.83;;;1.12;;
42176;SDS011;28126;51.060;19.460;2022-07-17T08:45:24;4.30;;;1.05;;
42176;SDS011;28126;51.060;19.460;2022-07-17T08:48:26;6.72;;;1.35;;
42176;SDS011;28126;51.060;19.460;2022-07-17T08:51:31;3.92;;;1.50;;
42176;SDS011;28126;51.060;19.460;2022-07-17T08:54:34;5.12;;;1.20;;
42176;SDS011;28126;51.060;19.460;2022-07-17T08:57:39;2.70;;;0.90;;
42176;SDS011;28126;51.060;19.460;2022-07-17T09:00:42;8.80;;;1.00;;
42176;SDS011;28126;51.060;19.460;2022-07-17T09:03:55;4.72;;;1.10;;
42176;SDS011;28126;51.060;19.460;2022-07-17T09:07:00;2.85;;;1.00;;
42176;SDS011;28126;51.060;19.460;2022-07-17T09:10:04;1.77;;;0.72;;
42176;SDS011;28126;51.060;19.460;2022-07-17T09:13:20;2.25;;;1.17;;
42176;SDS011;28126;51.060;19.460;2022-07-17T09:16:25;4.62;;;1.02;;
42176;SDS011;28126;51.060;19.460;2022-07-17T09:19:30;4.87;;;1.32;;
42176;SDS011;28126;51.060;19.460;2022-07-17T09:22:33;6.08;;;1.45;;
42176;SDS011;28126;51.060;19.460;2022-07-17T09:28:47;5.55;;;0.90;;
42176;SDS011;28126;51.060;19.460;2022-07-17T09:31:51;1.90;;;0.98;;
42176;SDS011;28126;51.060;19.460;2022-07-17T09:34:53;3.95;;;0.93;;
42176;SDS011;28126;51.060;19.460;2022-07-17T09:37:58;2.42;;;1.22;;
42176;SDS011;28126;51.060;19.460;2022-07-17T09:41:09;2.52;;;0.98;;
42176;SDS011;28126;51.060;19.460;2022-07-17T09:44:15;2.37;;;0.90;;
42176;SDS011;28126;51.060;19.460;2022-07-17T09:47:17;3.98;;;1.12;;
42176;SDS011;28126;51.060;19.460;2022-07-17T09:50:19;3.67;;;0.95;;
42176;SDS011;28126;51.060;19.460;2022-07-17T09:53:21;3.65;;;1.00;;
42176;SDS011;28126;51.060;19.460;2022-07-17T09:56:26;4.97;;;0.62;;
42176;SDS011;28126;51.060;19.460;2022-07-17T09:59:30;4.47;;;0.80;;
42176;SDS011;28126;51.060;19.460;2022-07-17T10:02:36;2.92;;;0.72;;
42176;SDS011;28126;51.060;19.460;2022-07-17T10:05:37;3.42;;;0.65;;
42176;SDS011;28126;51.060;19.460;2022-07-17T10:08:40;5.12;;;1.00;;
42176;SDS011;28126;51.060;19.460;2022-07-17T10:11:42;4.05;;;0.95;;
42176;SDS011;28126;51.060;19.460;2022-07-17T10:14:46;2.58;;;0.68;;
42176;SDS011;28126;51.060;19.460;2022-07-17T10:17:49;1.60;;;0.80;;
42176;SDS011;28126;51.060;19.460;2022-07-17T10:20:50;3.42;;;0.80;;
42176;SDS011;28126;51.060;19.460;2022-07-17T10:26:59;3.13;;;0.40;;
42176;SDS011;28126;51.060;19.460;2022-07-17T10:30:02;2.85;;;0.85;;
42176;SDS011;28126;51.060;19.460;2022-07-17T10:33:07;2.77;;;0.72;;
42176;SDS011;28126;51.060;19.460;2022-07-17T10:36:08;1.98;;;0.60;;
42176;SDS011;28126;51.060;19.460;2022-07-17T10:39:18;4.12;;;0.90;;
42176;SDS011;28126;51.060;19.460;2022-07-17T10:46:07;3.37;;;1.10;;
42176;SDS011;28126;51.060;19.460;2022-07-17T10:49:09;2.08;;;1.05;;
42176;SDS011;28126;51.060;19.460;2022-07-17T10:52:11;1.95;;;0.62;;
42176;SDS011;28126;51.060;19.460;2022-07-17T10:55:19;1.90;;;0.70;;
42176;SDS011;28126;51.060;19.460;2022-07-17T10:58:26;1.98;;;0.85;;
42176;SDS011;28126;51.060;19.460;2022-07-17T11:01:39;3.00;;;0.80;;
42176;SDS011;28126;51.060;19.460;2022-07-17T11:04:41;2.40;;;0.82;;
42176;SDS011;28126;51.060;19.460;2022-07-17T11:11:00;2.90;;;1.20;;
42176;SDS011;28126;51.060;19.460;2022-07-17T11:14:09;3.33;;;1.00;;
42176;SDS011;28126;51.060;19.460;2022-07-17T11:17:18;2.17;;;0.95;;
42176;SDS011;28126;51.060;19.460;2022-07-17T11:20:20;3.40;;;0.80;;
42176;SDS011;28126;51.060;19.460;2022-07-17T11:23:22;2.98;;;0.70;;
42176;SDS011;28126;51.060;19.460;2022-07-17T11:26:26;3.92;;;1.07;;
42176;SDS011;28126;51.060;19.460;2022-07-17T11:29:27;5.80;;;1.00;;
42176;SDS011;28126;51.060;19.460;2022-07-17T11:32:35;4.28;;;1.17;;
42176;SDS011;28126;51.060;19.460;2022-07-17T11:35:38;3.70;;;1.05;;
42176;SDS011;28126;51.060;19.460;2022-07-17T11:38:40;5.20;;;1.30;;
42176;SDS011;28126;51.060;19.460;2022-07-17T11:41:42;11.60;;;3.45;;
42176;SDS011;28126;51.060;19.460;2022-07-17T11:44:50;12.82;;;2.80;;
42176;SDS011;28126;51.060;19.460;2022-07-17T11:48:00;7.22;;;2.08;;
42176;SDS011;28126;51.060;19.460;2022-07-17T11:51:03;7.55;;;2.22;;
42176;SDS011;28126;51.060;19.460;2022-07-17T11:54:05;6.25;;;2.10;;
42176;SDS011;28126;51.060;19.460;2022-07-17T11:57:09;9.10;;;2.05;;
42176;SDS011;28126;51.060;19.460;2022-07-17T12:00:11;10.43;;;1.85;;
42176;SDS011;28126;51.060;19.460;2022-07-17T12:03:24;8.63;;;1.65;;
42176;SDS011;28126;51.060;19.460;2022-07-17T12:06:23;4.60;;;1.47;;
42176;SDS011;28126;51.060;19.460;2022-07-17T12:09:32;4.00;;;1.45;;
42176;SDS011;28126;51.060;19.460;2022-07-17T12:12:36;5.90;;;1.32;;
42176;SDS011;28126;51.060;19.460;2022-07-17T12:15:38;4.65;;;1.37;;
42176;SDS011;28126;51.060;19.460;2022-07-17T12:18:43;2.92;;;1.27;;
42176;SDS011;28126;51.060;19.460;2022-07-17T12:22:03;3.17;;;1.10;;
42176;SDS011;28126;51.060;19.460;2022-07-17T12:25:05;2.80;;;1.12;;
42176;SDS011;28126;51.060;19.460;2022-07-17T12:28:07;4.03;;;1.45;;
42176;SDS011;28126;51.060;19.460;2022-07-17T12:31:09;3.58;;;1.10;;
42176;SDS011;28126;51.060;19.460;2022-07-17T12:34:12;4.25;;;1.12;;
42176;SDS011;28126;51.060;19.460;2022-07-17T12:37:16;4.92;;;1.20;;
42176;SDS011;28126;51.060;19.460;2022-07-17T12:40:21;3.50;;;1.20;;
42176;SDS011;28126;51.060;19.460;2022-07-17T12:43:23;3.15;;;1.10;;
42176;SDS011;28126;51.060;19.460;2022-07-17T12:46:26;4.08;;;1.40;;
42176;SDS011;28126;51.060;19.460;2022-07-17T12:49:27;3.27;;;1.15;;
42176;SDS011;28126;51.060;19.460;2022-07-17T12:52:30;3.10;;;0.93;;
42176;SDS011;28126;51.060;19.460;2022-07-17T12:55:32;3.50;;;0.90;;
42176;SDS011;28126;51.060;19.460;2022-07-17T12:58:35;2.25;;;0.80;;
42176;SDS011;28126;51.060;19.460;2022-07-17T13:01:37;2.67;;;1.05;;
42176;SDS011;28126;51.060;19.460;2022-07-17T13:04:39;3.58;;;1.00;;
42176;SDS011;28126;51.060;19.460;2022-07-17T13:07:40;2.95;;;0.70;;
42176;SDS011;28126;51.060;19.460;2022-07-17T13:10:42;3.95;;;0.98;;
42176;SDS011;28126;51.060;19.460;2022-07-17T13:13:43;3.80;;;0.78;;
42176;SDS011;28126;51.060;19.460;2022-07-17T13:16:45;2.60;;;1.00;;
42176;SDS011;28126;51.060;19.460;2022-07-17T13:19:46;2.45;;;0.78;;
42176;SDS011;28126;51.060;19.460;2022-07-17T13:22:48;2.60;;;0.80;;
42176;SDS011;28126;51.060;19.460;2022-07-17T13:25:49;4.58;;;1.10;;
42176;SDS011;28126;51.060;19.460;2022-07-17T13:28:54;2.85;;;1.20;;
42176;SDS011;28126;51.060;19.460;2022-07-17T13:31:55;2.42;;;0.75;;
42176;SDS011;28126;51.060;19.460;2022-07-17T13:34:57;2.52;;;0.93;;
42176;SDS011;28126;51.060;19.460;2022-07-17T13:37:58;2.90;;;0.93;;
42176;SDS011;28126;51.060;19.460;2022-07-17T13:41:03;2.15;;;0.80;;
42176;SDS011;28126;51.060;19.460;2022-07-17T13:44:06;6.80;;;0.80;;
42176;SDS011;28126;51.060;19.460;2022-07-17T13:47:08;2.12;;;0.85;;
42176;SDS011;28126;51.060;19.460;2022-07-17T13:50:11;2.87;;;0.90;;
42176;SDS011;28126;51.060;19.460;2022-07-17T13:53:13;3.33;;;1.15;;
42176;SDS011;28126;51.060;19.460;2022-07-17T13:56:14;4.53;;;0.80;;
42176;SDS011;28126;51.060;19.460;2022-07-17T13:59:16;2.50;;;0.90;;
42176;SDS011;28126;51.060;19.460;2022-07-17T14:02:17;2.67;;;0.70;;
42176;SDS011;28126;51.060;19.460;2022-07-17T14:05:18;3.33;;;0.85;;
42176;SDS011;28126;51.060;19.460;2022-07-17T14:08:20;7.25;;;1.42;;
42176;SDS011;28126;51.060;19.460;2022-07-17T14:11:21;1.42;;;0.70;;
42176;SDS011;28126;51.060;19.460;2022-07-17T14:14:23;2.42;;;0.90;;
42176;SDS011;28126;51.060;19.460;2022-07-17T14:17:25;4.17;;;0.93;;
42176;SDS011;28126;51.060;19.460;2022-07-17T14:20:26;1.55;;;0.80;;
42176;SDS011;28126;51.060;19.460;2022-07-17T14:23:29;1.80;;;0.85;;
42176;SDS011;28126;51.060;19.460;2022-07-17T14:26:30;4.30;;;1.20;;
42176;SDS011;28126;51.060;19.460;2022-07-17T14:29:31;4.72;;;1.60;;
42176;SDS011;28126;51.060;19.460;2022-07-17T14:32:32;2.47;;;1.02;;
42176;SDS011;28126;51.060;19.460;2022-07-17T14:35:34;5.28;;;1.00;;
42176;SDS011;28126;51.060;19.460;2022-07-17T14:38:37;1.27;;;0.78;;
42176;SDS011;28126;51.060;19.460;2022-07-17T14:41:39;3.35;;;1.07;;
42176;SDS011;28126;51.060;19.460;2022-07-17T14:44:41;3.95;;;1.27;;
42176;SDS011;28126;51.060;19.460;2022-07-17T14:47:42;2.08;;;0.60;;
42176;SDS011;28126;51.060;19.460;2022-07-17T14:50:44;4.55;;;1.30;;
42176;SDS011;28126;51.060;19.460;2022-07-17T14:53:45;3.50;;;0.90;;
42176;SDS011;28126;51.060;19.460;2022-07-17T14:56:46;2.65;;;0.82;;
42176;SDS011;28126;51.060;19.460;2022-07-17T14:59:48;3.08;;;1.07;;
42176;SDS011;28126;51.060;19.460;2022-07-17T15:02:49;2.65;;;1.07;;
42176;SDS011;28126;51.060;19.460;2022-07-17T15:05:50;3.37;;;1.32;;
42176;SDS011;28126;51.060;19.460;2022-07-17T15:08:52;4.92;;;1.37;;
42176;SDS011;28126;51.060;19.460;2022-07-17T15:11:53;3.72;;;1.20;;
42176;SDS011;28126;51.060;19.460;2022-07-17T15:14:55;5.00;;;1.05;;
42176;SDS011;28126;51.060;19.460;2022-07-17T15:17:59;3.15;;;1.07;;
42176;SDS011;28126;51.060;19.460;2022-07-17T15:21:01;3.27;;;0.98;;
42176;SDS011;28126;51.060;19.460;2022-07-17T15:24:02;1.70;;;0.80;;
42176;SDS011;28126;51.060;19.460;2022-07-17T15:27:05;2.37;;;0.88;;
42176;SDS011;28126;51.060;19.460;2022-07-17T15:30:07;2.90;;;1.00;;
42176;SDS011;28126;51.060;19.460;2022-07-17T15:33:09;2.35;;;1.10;;
42176;SDS011;28126;51.060;19.460;2022-07-17T15:36:11;1.57;;;0.88;;
42176;SDS011;28126;51.060;19.460;2022-07-17T15:39:12;2.22;;;1.00;;
42176;SDS011;28126;51.060;19.460;2022-07-17T15:42:14;3.30;;;0.90;;
42176;SDS011;28126;51.060;19.460;2022-07-17T15:45:16;3.62;;;0.90;;
42176;SDS011;28126;51.060;19.460;2022-07-17T15:48:22;3.62;;;1.10;;
42176;SDS011;28126;51.060;19.460;2022-07-17T15:51:23;1.82;;;0.85;;
42176;SDS011;28126;51.060;19.460;2022-07-17T15:54:25;2.42;;;0.70;;
42176;SDS011;28126;51.060;19.460;2022-07-17T15:57:26;3.62;;;1.35;;
42176;SDS011;28126;51.060;19.460;2022-07-17T16:00:28;2.65;;;0.98;;
42176;SDS011;28126;51.060;19.460;2022-07-17T16:03:29;1.70;;;0.82;;
42176;SDS011;28126;51.060;19.460;2022-07-17T16:06:30;3.15;;;1.00;;
42176;SDS011;28126;51.060;19.460;2022-07-17T16:09:32;4.08;;;0.90;;
42176;SDS011;28126;51.060;19.460;2022-07-17T16:12:34;2.70;;;1.15;;
42176;SDS011;28126;51.060;19.460;2022-07-17T16:15:36;2.72;;;1.02;;
42176;SDS011;28126;51.060;19.460;2022-07-17T16:18:39;2.05;;;1.22;;
42176;SDS011;28126;51.060;19.460;2022-07-17T16:21:41;3.45;;;1.00;;
42176;SDS011;28126;51.060;19.460;2022-07-17T16:24:43;3.10;;;1.27;;
42176;SDS011;28126;51.060;19.460;2022-07-17T16:27:44;3.80;;;0.90;;
42176;SDS011;28126;51.060;19.460;2022-07-17T16:30:46;2.10;;;1.00;;
42176;SDS011;28126;51.060;19.460;2022-07-17T16:33:48;3.62;;;1.10;;
42176;SDS011;28126;51.060;19.460;2022-07-17T16:36:49;2.00;;;0.70;;
42176;SDS011;28126;51.060;19.460;2022-07-17T16:39:50;5.67;;;0.78;;
42176;SDS011;28126;51.060;19.460;2022-07-17T16:42:51;2.17;;;1.15;;
42176;SDS011;28126;51.060;19.460;2022-07-17T16:45:53;5.20;;;1.07;;
42176;SDS011;28126;51.060;19.460;2022-07-17T16:48:56;2.67;;;0.80;;
42176;SDS011;28126;51.060;19.460;2022-07-17T16:51:58;2.20;;;0.98;;
42176;SDS011;28126;51.060;19.460;2022-07-17T16:54:59;4.17;;;1.17;;
42176;SDS011;28126;51.060;19.460;2022-07-17T16:58:02;2.52;;;0.90;;
42176;SDS011;28126;51.060;19.460;2022-07-17T17:01:03;3.67;;;1.10;;
42176;SDS011;28126;51.060;19.460;2022-07-17T17:04:05;4.95;;;1.12;;
42176;SDS011;28126;51.060;19.460;2022-07-17T17:07:06;5.20;;;1.42;;
42176;SDS011;28126;51.060;19.460;2022-07-17T17:10:08;3.22;;;1.40;;
42176;SDS011;28126;51.060;19.460;2022-07-17T17:13:12;3.15;;;1.22;;
42176;SDS011;28126;51.060;19.460;2022-07-17T17:16:13;3.17;;;1.70;;
42176;SDS011;28126;51.060;19.460;2022-07-17T17:19:15;3.92;;;1.35;;
42176;SDS011;28126;51.060;19.460;2022-07-17T17:22:17;4.35;;;1.30;;
42176;SDS011;28126;51.060;19.460;2022-07-17T17:25:19;3.17;;;1.22;;
42176;SDS011;28126;51.060;19.460;2022-07-17T17:28:21;5.45;;;1.30;;
42176;SDS011;28126;51.060;19.460;2022-07-17T17:31:22;4.40;;;1.40;;
42176;SDS011;28126;51.060;19.460;2022-07-17T17:34:23;3.27;;;1.62;;
42176;SDS011;28126;51.060;19.460;2022-07-17T17:37:25;4.55;;;1.85;;
42176;SDS011;28126;51.060;19.460;2022-07-17T17:40:26;4.72;;;1.30;;
42176;SDS011;28126;51.060;19.460;2022-07-17T17:43:28;2.40;;;1.12;;
42176;SDS011;28126;51.060;19.460;2022-07-17T17:46:29;2.17;;;1.25;;
42176;SDS011;28126;51.060;19.460;2022-07-17T17:49:32;2.87;;;1.07;;
42176;SDS011;28126;51.060;19.460;2022-07-17T17:52:35;5.53;;;1.47;;
42176;SDS011;28126;51.060;19.460;2022-07-17T17:55:37;4.70;;;1.12;;
42176;SDS011;28126;51.060;19.460;2022-07-17T17:58:38;3.47;;;1.22;;
42176;SDS011;28126;51.060;19.460;2022-07-17T18:01:40;3.37;;;1.30;;
42176;SDS011;28126;51.060;19.460;2022-07-17T18:04:42;2.67;;;1.10;;
42176;SDS011;28126;51.060;19.460;2022-07-17T18:07:44;5.47;;;1.20;;
42176;SDS011;28126;51.060;19.460;2022-07-17T18:10:46;3.90;;;1.30;;
42176;SDS011;28126;51.060;19.460;2022-07-17T18:13:48;3.10;;;1.22;;